Vancouver, WA

2:14 PM PST on January 19, 2017 (GMT -0800)
Lincoln | | Change Station

Elev 223 ft 45.65 °N, 122.67 °W | Updated 20 seconds ago

Scattered Clouds
Scattered Clouds
51.4 °F
Feels Like 51.4 °F
N
6.0
Wind Variable Wind from ESE

Today
High -- | Low -- °F
--% Chance of Precip.
Yesterday
High -- | Low -- °F
Precip. -- in
Pressure 29.58 in
Visibility 10.0 miles
Clouds Few 4000 ft
Scattered Clouds 5500 ft
Scattered Clouds 11000 ft
Dew Point 42 °F
Humidity 71%
Rainfall 0.02 in
Snow Depth Not available.
7:44 AM 4:59 PM
Waning Gibbous, 50% visible
METAR KVUO 192153Z AUTO 18006KT 10SM FEW040 SCT055 SCT110 11/04 A2958 RMK AO2 SLP015 T01060044
Pressure 29.58 in
Visibility 10.0 miles
Clouds Few 4000 ft
Scattered Clouds 5500 ft
Scattered Clouds 11000 ft
Dew Point 42 °F
Humidity 71%
Rainfall 0.02 in
Snow Depth Not available.
7:44 AM 4:59 PM
Waning Gibbous, 50% visible
METAR KVUO 192153Z AUTO 18006KT 10SM FEW040 SCT055 SCT110 11/04 A2958 RMK AO2 SLP015 T01060044

Get Your Daily Forecast Email!

Thanks for signing up!

Be on the lookout for a verification email in your inbox.

You'll start receiving the daily forecast at 8 AM.

×

10-Day Weather Forecast

Almanac

Astronomy

Jan. 19, 2017 Rise Set
Actual Time
Civil Twilight
Nautical Twilight
Astronomical Twilight
Moon
Length of Visible Light
Length of Day
Tomorrow will be .
, % of the Moon is Illuminated

Today's Extremes

State Highs State Lows

Community

WunderPhotos

Upload Photos

1,962,540 photos uploaded!

WunderBlog® & News

Nearby

Air Quality

  Air Quality AQ Index Pollutant
Not available.

Snow Depth

Station Depth Elevation

Earthquake Activity

City Distance Mag. Time & Date
Minimum magnitude displayed is 2.5.

Coastal Water Temperatures

Place Temperature

Stations

Nearby Weather Stations

Station Location Temp. Windchill Dew Point Humidity Wind Precip. Elev Updated Type
                   

Watches & Warnings

Small Craft for Rough Bar Advisory
Issued: 8:50 AM PST Jan. 19, 2017 – National Weather Service

... Small Craft Advisory for rough bar remains in effect until
4 PM PST this afternoon...

* in the Main Channel...

* general seas... 12 to 14 ft through tonight.

* First Ebb... around 10 am this morning. Seas near 17 ft with
breakers likely.

* Second Ebb... around 10 PM this evening. Seas near 18 ft with
breakers possible.

Precautionary/preparedness actions...

A Small Craft Advisory for rough bar means that wave conditions
are expected to be hazardous to small craft in or near Harbor
entrances.




Http://www.Weather.Gov/Portland